^^
Datos históricos de la estación: Murcia-Puente Tocinos
Diario Informe para Septiembre 23, 2021 Unidades:  Métrico    Ingés   Ambas
Diario Semanal Mensual Anual
  Máxima: Mínima: Promedio:
Temperatura: 28.4 °C 20.4 °C 24.2 °C
Punto de rocio: 19.8 °C 15.7 °C 17.1 °C
Humedad: 78% 48.3% 66%
Velocidad viento: 24.5km/h 2.9km/h 9.3km/h
Racha viento: 43.1km/h - -
Viento- - SSE
Presión: 1015.8 hPa 1012.1 hPa -
Precipitación: 0.0 mm    
 
 
Tabla de datos para Septiembre 23, 2021
Hora Temperatura Punto de rocio Presión Viento Velocidad viento Racha viento Humedad Intensidad lluvia(por hora) Nubes
00:04 22.4 °C 15.9 °C 1015.6 hPa Oeste 4.7 km/h 11.1 km/h 67% 0.0 mm
00:09 22.4 °C 15.9 °C 1015.7 hPa OSO 4.7 km/h 10 km/h 67% 0.0 mm
00:14 22.5 °C 16.1 °C 1015.7 hPa OSO 4.7 km/h 9.3 km/h 67% 0.0 mm
00:19 22.6 °C 16.2 °C 1015.7 hPa SO 4.2 km/h 7.6 km/h 67% 0.0 mm
00:24 22.6 °C 16.2 °C 1015.8 hPa Sur 3.2 km/h 9.5 km/h 66.9% 0.0 mm
00:29 22.6 °C 16.2 °C 1015.8 hPa SE 4 km/h 9.3 km/h 67.3% 0.0 mm
00:34 22.6 °C 16.4 °C 1015.8 hPa SSE 5.8 km/h 7.4 km/h 68% 0.0 mm
00:39 22.5 °C 16.4 °C 1015.8 hPa SSE 5.5 km/h 7.6 km/h 68.6% 0.0 mm
00:44 22.4 °C 16.5 °C 1015.7 hPa Sur 4.7 km/h 7.4 km/h 69% 0.0 mm
00:49 22.4 °C 16.4 °C 1015.7 hPa SSE 4.7 km/h 7.4 km/h 69% 0.0 mm
00:54 22.4 °C 16.4 °C 1015.7 hPa SSE 4.7 km/h 7.4 km/h 69% 0.0 mm
00:59 22.4 °C 16.4 °C 1015.6 hPa SSE 4.7 km/h 7.4 km/h 68.8% 0.0 mm
01:04 22.4 °C 16.4 °C 1015.6 hPa SSE 4.7 km/h 7.4 km/h 69% 0.0 mm
01:09 22.4 °C 16.4 °C 1015.6 hPa SSE 4.4 km/h 7.4 km/h 69% 0.0 mm
01:14 22.4 °C 16.4 °C 1015.5 hPa SSE 3.9 km/h 5.6 km/h 69% 0.0 mm
01:19 22.3 °C 16.4 °C 1015.5 hPa OSO 3.7 km/h 7.4 km/h 69% 0.0 mm
01:24 22.3 °C 16.3 °C 1015.5 hPa OSO 3.2 km/h 9.3 km/h 68.8% 0.0 mm
01:29 22.3 °C 16.1 °C 1015.5 hPa Oeste 3.7 km/h 7.6 km/h 68% 0.0 mm
01:34 22.2 °C 16 °C 1015.5 hPa OSO 5 km/h 9.3 km/h 68% 0.0 mm
01:39 22.2 °C 15.9 °C 1015.5 hPa Oeste 5.3 km/h 7.6 km/h 68% 0.0 mm
01:44 22.1 °C 16.1 °C 1015.3 hPa OSO 5.8 km/h 7.4 km/h 68.9% 0.0 mm
01:49 22.1 °C 16.2 °C 1015.3 hPa OSO 5.2 km/h 7.4 km/h 69% 0.0 mm
01:54 22.1 °C 16.1 °C 1015.3 hPa SO 3.9 km/h 11.9 km/h 69% 0.0 mm
01:59 22 °C 16.2 °C 1015.3 hPa SO 4.8 km/h 13 km/h 69.6% 0.0 mm
02:04 22 °C 16.3 °C 1015.3 hPa SO 6.4 km/h 8.4 km/h 70% 0.0 mm
02:09 21.9 °C 16.2 °C 1015.3 hPa SSO 6.2 km/h 11.9 km/h 70% 0.0 mm
02:14 21.9 °C 16.2 °C 1015.3 hPa SSO 5.8 km/h 11.9 km/h 70% 0.0 mm
02:19 21.9 °C 16.2 °C 1015.3 hPa SSO 6.1 km/h 13 km/h 70% 0.0 mm
02:24 21.9 °C 16.2 °C 1015.3 hPa SSO 6.9 km/h 11.9 km/h 70% 0.0 mm
02:29 21.8 °C 16.1 °C 1015.1 hPa SSO 7.1 km/h 11.9 km/h 70% 0.0 mm
02:34 21.7 °C 16.3 °C 1015.1 hPa SSO 7.6 km/h 13 km/h 71% 0.0 mm
02:39 21.7 °C 16.2 °C 1015.1 hPa SSO 7.8 km/h 15.6 km/h 71% 0.0 mm
02:44 21.6 °C 16.2 °C 1015.0 hPa SSO 8.4 km/h 14.8 km/h 71.5% 0.0 mm
02:49 21.6 °C 16.3 °C 1015.0 hPa Sur 8.5 km/h 13 km/h 72% 0.0 mm
02:54 21.6 °C 16.3 °C 1015.0 hPa Sur 8.7 km/h 13 km/h 72% 0.0 mm
02:59 21.5 °C 16.4 °C 1015.0 hPa Sur 8.6 km/h 11.1 km/h 72.9% 0.0 mm
03:04 21.4 °C 16.3 °C 1015.0 hPa Sur 8.4 km/h 13 km/h 73% 0.0 mm
03:09 21.4 °C 16.3 °C 1015.1 hPa Sur 8.1 km/h 13 km/h 73% 0.0 mm
03:14 21.3 °C 16.3 °C 1015.1 hPa SSO 7.6 km/h 14 km/h 73% 0.0 mm
03:19 21.3 °C 16.3 °C 1015.1 hPa SSO 7.8 km/h 14.8 km/h 73% 0.0 mm
03:24 21.3 °C 16.3 °C 1015.1 hPa SSO 8.4 km/h 11.1 km/h 73% 0.0 mm
03:29 21.3 °C 16.3 °C 1015.1 hPa SSO 8.4 km/h 13 km/h 73% 0.0 mm
03:34 21.4 °C 16.3 °C 1015.1 hPa SSO 8.4 km/h 11.1 km/h 73% 0.0 mm
03:39 21.4 °C 16.2 °C 1015.1 hPa SSO 7.9 km/h 9.5 km/h 72.3% 0.0 mm
03:44 21.5 °C 16.2 °C 1015.0 hPa SSO 6.9 km/h 9.5 km/h 72% 0.0 mm
03:49 21.6 °C 16.3 °C 1015.0 hPa SSO 6.6 km/h 10 km/h 72% 0.0 mm
03:54 21.6 °C 16.3 °C 1015.0 hPa SSO 5.8 km/h 13 km/h 72% 0.0 mm
03:59 21.6 °C 16.3 °C 1015.0 hPa SSO 6.7 km/h 14.8 km/h 72% 0.0 mm
04:04 21.5 °C 16.2 °C 1015.0 hPa SO 8.4 km/h 13 km/h 72% 0.0 mm
04:09 21.5 °C 16.2 °C 1015.0 hPa SO 7.9 km/h 11.1 km/h 72% 0.0 mm
04:14 21.5 °C 16.2 °C 1014.9 hPa SO 6.9 km/h 13 km/h 72% 0.0 mm
04:19 21.5 °C 16.2 °C 1014.9 hPa SO 7.1 km/h 11.1 km/h 72% 0.0 mm
04:24 21.4 °C 16.2 °C 1014.9 hPa OSO 7.6 km/h 11.1 km/h 72% 0.0 mm
04:29 21.4 °C 16.2 °C 1014.6 hPa SO 7 km/h 10 km/h 72.1% 0.0 mm
04:34 21.4 °C 16.3 °C 1014.6 hPa SO 5.8 km/h 10 km/h 73% 0.0 mm
04:39 21.3 °C 16.3 °C 1014.6 hPa SO 6.1 km/h 11.1 km/h 73% 0.0 mm
04:44 21.3 °C 16.3 °C 1014.5 hPa SO 6.9 km/h 10 km/h 73% 0.0 mm
04:49 21.3 °C 16.3 °C 1014.5 hPa SO 6.8 km/h 13 km/h 73% 0.0 mm
04:54 21.3 °C 16.4 °C 1014.5 hPa SO 6.4 km/h 13 km/h 73.6% 0.0 mm
04:59 21.2 °C 16.4 °C 1014.3 hPa SO 7.1 km/h 13 km/h 74% 0.0 mm
05:04 21.2 °C 16.4 °C 1014.3 hPa SO 8.4 km/h 13 km/h 74% 0.0 mm
05:09 21.2 °C 16.4 °C 1014.3 hPa SO 8.4 km/h 13 km/h 74% 0.0 mm
05:14 21.1 °C 16.5 °C 1014.2 hPa SSO 8.4 km/h 14.8 km/h 74.8% 0.0 mm
05:19 21 °C 16.4 °C 1014.2 hPa SSO 8.4 km/h 14.8 km/h 75% 0.0 mm
05:24 21 °C 16.3 °C 1014.2 hPa SSO 8.4 km/h 11.1 km/h 75% 0.0 mm
05:29 20.9 °C 16.3 °C 1014.2 hPa SSO 7.9 km/h 14 km/h 75% 0.0 mm
05:34 20.9 °C 16.4 °C 1014.2 hPa SSO 6.9 km/h 14.8 km/h 75.9% 0.0 mm
05:39 20.8 °C 16.4 °C 1014.2 hPa SSO 7.6 km/h 15.6 km/h 76% 0.0 mm
05:44 20.8 °C 16.4 °C 1014.1 hPa SSO 9.5 km/h 11.9 km/h 76% 0.0 mm
05:49 20.7 °C 16.3 °C 1014.1 hPa SSO 9.2 km/h 13 km/h 76% 0.0 mm
05:54 20.7 °C 16.4 °C 1014.1 hPa SSO 8.7 km/h 11.1 km/h 76.5% 0.0 mm
05:59 20.7 °C 16.5 °C 1013.9 hPa SSO 7.7 km/h 6.4 km/h 77% 0.0 mm
06:04 20.7 °C 16.5 °C 1013.9 hPa OSO 5.8 km/h 9.3 km/h 77% 0.0 mm
06:09 20.6 °C 16.4 °C 1013.9 hPa SO 5.6 km/h 9.5 km/h 77% 0.0 mm
06:14 20.6 °C 16.4 °C 1013.8 hPa SO 5 km/h 9.3 km/h 77% 0.0 mm
06:19 20.6 °C 16.4 °C 1013.8 hPa SO 5 km/h 7.6 km/h 77% 0.0 mm
06:24 20.6 °C 16.4 °C 1014.0 hPa SO 5 km/h 9.5 km/h 77% 0.0 mm
06:29 20.6 °C 16.4 °C 1014.0 hPa SO 5.2 km/h 8.7 km/h 77% 0.0 mm
06:34 20.6 °C 16.4 °C 1014.0 hPa SO 5.8 km/h 9.3 km/h 77% 0.0 mm
06:39 20.5 °C 16.3 °C 1014.1 hPa OSO 5.4 km/h 8.7 km/h 77% 0.0 mm
06:44 20.5 °C 16.3 °C 1014.1 hPa OSO 4.7 km/h 10 km/h 77% 0.0 mm
06:49 20.4 °C 16.2 °C 1014.1 hPa OSO 5 km/h 9.3 km/h 77% 0.0 mm
06:54 20.4 °C 16.4 °C 1014.1 hPa Oeste 5.8 km/h 5.8 km/h 77.8% 0.0 mm
06:59 20.4 °C 16.5 °C 1014.1 hPa SO 5.2 km/h 9.5 km/h 78% 0.0 mm
07:04 20.5 °C 16.6 °C 1014.1 hPa SO 3.9 km/h 11.1 km/h 78% 0.0 mm
07:09 20.5 °C 16.5 °C 1014.1 hPa SSO 4.9 km/h 11.1 km/h 77.6% 0.0 mm
07:14 20.5 °C 16.4 °C 1014.1 hPa SO 7.6 km/h 9.5 km/h 77.2% 0.0 mm
07:19 20.6 °C 16.5 °C 1014.1 hPa SO 7 km/h 9.3 km/h 77.1% 0.0 mm
07:24 20.6 °C 16.4 °C 1014.2 hPa SO 5.8 km/h 7.6 km/h 77% 0.0 mm
07:29 20.6 °C 16.4 °C 1014.2 hPa Sur 5.6 km/h 8.4 km/h 77% 0.0 mm
07:34 20.6 °C 16.4 °C 1014.2 hPa SSO 5 km/h 11.1 km/h 77% 0.0 mm
07:39 20.7 °C 16.5 °C 1014.3 hPa Sur 5.4 km/h 10 km/h 77% 0.0 mm
07:44 20.7 °C 16.5 °C 1014.3 hPa SSO 6.4 km/h 11.1 km/h 77% 0.0 mm
07:49 20.7 °C 16.5 °C 1014.3 hPa SSO 7 km/h 13.7 km/h 77% 0.0 mm
07:54 20.7 °C 16.5 °C 1014.5 hPa Sur 8.4 km/h 11.9 km/h 77% 0.0 mm
07:59 20.7 °C 16.5 °C 1014.5 hPa Sur 8.4 km/h 13 km/h 77% 0.0 mm
08:04 20.7 °C 16.5 °C 1014.5 hPa Sur 8.4 km/h 13 km/h 77% 0.0 mm
08:09 20.7 °C 16.5 °C 1014.5 hPa SSO 8.1 km/h 13 km/h 77% 0.0 mm
08:14 20.7 °C 16.5 °C 1014.5 hPa SSO 7.6 km/h 14 km/h 77% 0.0 mm
08:19 20.7 °C 16.5 °C 1014.5 hPa SO 7.6 km/h 14.8 km/h 77% 0.0 mm
08:24 20.7 °C 16.5 °C 1014.5 hPa SO 7.6 km/h 13 km/h 77% 0.0 mm
08:29 20.7 °C 16.5 °C 1014.5 hPa SSO 7.8 km/h 16.7 km/h 77% 0.0 mm
08:34 20.7 °C 16.5 °C 1014.5 hPa SSO 8.4 km/h 17.2 km/h 77% 0.0 mm
08:39 20.7 °C 16.5 °C 1014.5 hPa SSO 8.7 km/h 14.8 km/h 77% 0.0 mm
08:44 20.7 °C 16.5 °C 1014.4 hPa SO 9.5 km/h 14.8 km/h 77% 0.0 mm
08:49 20.8 °C 16.6 °C 1014.4 hPa SSO 8.9 km/h 13 km/h 77% 0.0 mm
08:54 20.8 °C 16.6 °C 1014.4 hPa SSO 7.6 km/h 16.4 km/h 77% 0.0 mm
08:59 20.8 °C 16.6 °C 1014.4 hPa SSO 8 km/h 16.7 km/h 77% 0.0 mm
09:04 20.9 °C 16.6 °C 1014.4 hPa SSO 8.7 km/h 13 km/h 76.7% 0.0 mm
09:09 21 °C 16.6 °C 1014.4 hPa SO 8.2 km/h 14 km/h 76% 0.0 mm
09:14 21.1 °C 16.7 °C 1014.4 hPa SSO 6.9 km/h 14.8 km/h 76% 0.0 mm
09:19 21.1 °C 16.7 °C 1014.4 hPa SSO 7.5 km/h 13.7 km/h 75.9% 0.0 mm
09:24 21.2 °C 16.7 °C 1014.5 hPa OSO 8.7 km/h 11.9 km/h 75.4% 0.0 mm
09:29 21.3 °C 16.6 °C 1014.5 hPa SO 8.1 km/h 14.8 km/h 75% 0.0 mm
09:34 21.4 °C 16.7 °C 1014.5 hPa SO 6.9 km/h 14.8 km/h 74.8% 0.0 mm
09:39 21.5 °C 16.6 °C 1014.5 hPa SO 7.1 km/h 13 km/h 74% 0.0 mm
09:44 21.6 °C 16.7 °C 1014.3 hPa SO 7.6 km/h 13 km/h 74% 0.0 mm
09:49 21.7 °C 16.8 °C 1014.3 hPa SSO 7.4 km/h 11.1 km/h 73.7% 0.0 mm
09:54 21.7 °C 16.8 °C 1014.4 hPa SO 6.9 km/h 10 km/h 73.7% 0.0 mm
09:59 21.8 °C 16.8 °C 1014.4 hPa SSO 6.5 km/h 10 km/h 73% 0.0 mm
10:04 22 °C 16.9 °C 1014.4 hPa SO 5.8 km/h 10 km/h 72.7% 0.0 mm
10:09 22.2 °C 16.8 °C 1014.5 hPa SO 6 km/h 12.2 km/h 71.6% 0.0 mm
10:14 22.2 °C 16.8 °C 1014.5 hPa SSO 6.4 km/h 13 km/h 71.4% 0.0 mm
10:19 22.3 °C 16.8 °C 1014.5 hPa SO 6.6 km/h 11.1 km/h 71% 0.0 mm
10:24 22.5 °C 16.9 °C 1014.6 hPa SSO 6.9 km/h 13.7 km/h 70.4% 0.0 mm
10:29 22.7 °C 16.9 °C 1014.6 hPa SO 7.3 km/h 13 km/h 70% 0.0 mm
10:34 22.8 °C 17 °C 1014.6 hPa SSO 8.4 km/h 15.6 km/h 69.8% 0.0 mm
10:39 22.9 °C 16.9 °C 1014.7 hPa SSO 8.4 km/h 14.8 km/h 69% 0.0 mm
10:44 23 °C 16.9 °C 1014.7 hPa SSO 8.4 km/h 14.8 km/h 68.5% 0.0 mm
10:49 23.2 °C 16.9 °C 1014.7 hPa SSO 8.5 km/h 16.7 km/h 67.7% 0.0 mm
10:54 23.4 °C 16.9 °C 1014.8 hPa SO 8.7 km/h 14.8 km/h 67% 0.0 mm
10:59 23.5 °C 16.9 °C 1014.8 hPa SO 8.3 km/h 13 km/h 66.5% 0.0 mm
11:04 23.8 °C 16.9 °C 1014.8 hPa SSO 7.6 km/h 13 km/h 65.7% 0.0 mm
11:09 24 °C 16.9 °C 1014.8 hPa SO 7.4 km/h 14 km/h 64.5% 0.0 mm
11:14 24.2 °C 16.7 °C 1014.7 hPa SO 6.9 km/h 15.6 km/h 63% 0.0 mm
11:19 24.3 °C 16.5 °C 1014.7 hPa OSO 7.4 km/h 13.7 km/h 61.9% 0.0 mm
11:24 24.5 °C 16.4 °C 1014.7 hPa SO 8.7 km/h 13 km/h 61% 0.0 mm
11:29 24.7 °C 16.3 °C 1014.6 hPa OSO 8.2 km/h 11.9 km/h 59.8% 0.0 mm
11:34 24.7 °C 16.4 °C 1014.6 hPa Sur 6.9 km/h 13.7 km/h 59.9% 0.0 mm
11:39 24.9 °C 16.3 °C 1014.7 hPa Sur 7.4 km/h 13.7 km/h 58.8% 0.0 mm
11:44 25.1 °C 16.5 °C 1014.7 hPa Sur 8.4 km/h 15.6 km/h 59% 0.0 mm
11:49 25.2 °C 16.4 °C 1014.7 hPa SSO 8.7 km/h 17.2 km/h 58.5% 0.0 mm
11:54 25.3 °C 16.4 °C 1014.7 hPa Sur 9.5 km/h 15.6 km/h 57.7% 0.0 mm
11:59 25.4 °C 16.2 °C 1014.6 hPa Sur 9.5 km/h 15.6 km/h 56.6% 0.0 mm
12:04 25.5 °C 16.2 °C 1014.6 hPa Sur 9.5 km/h 13.7 km/h 56.4% 0.0 mm
12:09 25.6 °C 16.2 °C 1014.6 hPa Sur 9.2 km/h 13 km/h 55.9% 0.0 mm
12:14 25.7 °C 16 °C 1014.5 hPa SSO 8.4 km/h 13 km/h 55.1% 0.0 mm
12:19 25.8 °C 15.9 °C 1014.5 hPa SSO 8.1 km/h 11.9 km/h 54.5% 0.0 mm
12:24 26.1 °C 16 °C 1014.5 hPa Oeste 7.6 km/h 9.5 km/h 54.1% 0.0 mm
12:29 26.3 °C 16 °C 1014.4 hPa SSO 6.6 km/h 7.4 km/h 53.2% 0.0 mm
12:34 26.6 °C 16.2 °C 1014.4 hPa ENE 4.7 km/h 8.4 km/h 52.9% 0.0 mm
12:39 26.9 °C 16 °C 1014.4 hPa ENE 4.4 km/h 8.4 km/h 51.5% 0.0 mm
12:44 27.2 °C 16.2 °C 1014.3 hPa ENE 3.9 km/h 6.4 km/h 51% 0.0 mm
12:49 27.6 °C 16.1 °C 1014.3 hPa ONO 3.9 km/h 11.1 km/h 49.6% 0.0 mm
12:54 27.5 °C 15.8 °C 1014.3 hPa Oeste 3.9 km/h 8.4 km/h 49% 0.0 mm
12:59 27.4 °C 15.8 °C 1014.2 hPa SE 4.1 km/h 12.2 km/h 49.3% 0.0 mm
13:04 27.3 °C 15.8 °C 1014.2 hPa Sur 4.7 km/h 13 km/h 49.3% 0.0 mm
13:09 27.3 °C 16 °C 1014.2 hPa ESE 5.2 km/h 11.1 km/h 50.1% 0.0 mm
13:14 27.6 °C 16.1 °C 1014.1 hPa NE 6.4 km/h 11.9 km/h 49.6% 0.0 mm
13:19 27.6 °C 15.8 °C 1014.1 hPa ENE 6.8 km/h 11.9 km/h 48.6% 0.0 mm
13:24 27.6 °C 15.9 °C 1014.1 hPa NE 7.6 km/h 14.8 km/h 48.8% 0.0 mm
13:29 27.6 °C 15.9 °C 1014.1 hPa NNE 7.4 km/h 20.4 km/h 48.8% 0.0 mm
13:34 27.5 °C 15.9 °C 1014.1 hPa NE 6.9 km/h 18.5 km/h 49.1% 0.0 mm
13:39 27.6 °C 15.8 °C 1014.1 hPa North 7.1 km/h 11.1 km/h 48.7% 0.0 mm
13:44 27.6 °C 15.7 °C 1014.1 hPa NE 7.6 km/h 12.2 km/h 48.4% 0.0 mm
13:49 27.6 °C 16.1 °C 1014.1 hPa NNE 7.6 km/h 13 km/h 49.4% 0.0 mm
13:54 27.8 °C 16.1 °C 1014.1 hPa North 7.6 km/h 13 km/h 49% 0.0 mm
13:59 27.9 °C 16.2 °C 1013.8 hPa NNE 7.8 km/h 20.4 km/h 49% 0.0 mm
14:04 27.9 °C 16.4 °C 1013.8 hPa NE 8.4 km/h 20.4 km/h 49.7% 0.0 mm
14:09 27.9 °C 16.8 °C 1013.8 hPa ENE 8.8 km/h 22.2 km/h 51% 0.0 mm
14:14 27.8 °C 17.1 °C 1013.6 hPa ENE 10 km/h 18.5 km/h 52% 0.0 mm
14:19 27.7 °C 16.9 °C 1013.6 hPa NE 10.1 km/h 20.1 km/h 51.7% 0.0 mm
14:24 27.8 °C 17 °C 1013.6 hPa NE 10.3 km/h 20.4 km/h 52.1% 0.0 mm
14:29 27.9 °C 17.5 °C 1013.4 hPa NE 10.2 km/h 18.5 km/h 53.1% 0.0 mm
14:34 27.8 °C 17.7 °C 1013.4 hPa NE 10 km/h 20.4 km/h 54% 0.0 mm
14:39 27.9 °C 17.6 °C 1013.4 hPa NE 10 km/h 16.7 km/h 53.6% 0.0 mm
14:44 27.9 °C 17.7 °C 1013.0 hPa NNE 10 km/h 16.7 km/h 53.9% 0.0 mm
14:49 27.8 °C 17.7 °C 1013.0 hPa NNE 10.3 km/h 22.2 km/h 54.1% 0.0 mm
14:54 27.8 °C 18 °C 1013.0 hPa NE 11.1 km/h 20.4 km/h 55.1% 0.0 mm
14:55 27.8 °C 18.3 °C 1012.9 hPa NE 11.1 km/h 16.7 km/h 56% 0.0 mm
15:04 28.1 °C 18.1 °C 1012.9 hPa NE 11.1 km/h 29.6 km/h 54.7% 0.0 mm
15:09 28.1 °C 17.9 °C 1012.9 hPa NE 12 km/h 27.8 km/h 54% 0.0 mm
15:14 28 °C 17.9 °C 1012.7 hPa ENE 14 km/h 24.1 km/h 54% 0.0 mm
15:19 27.9 °C 17.7 °C 1012.7 hPa ENE 13.7 km/h 29.6 km/h 54% 0.0 mm
15:24 27.9 °C 17.7 °C 1012.8 hPa ENE 13 km/h 22.2 km/h 53.8% 0.0 mm
15:29 28 °C 17.7 °C 1012.8 hPa NE 13 km/h 29.8 km/h 53.6% 0.0 mm
15:34 28 °C 17.5 °C 1012.8 hPa NE 13 km/h 26.2 km/h 53% 0.0 mm
15:39 27.8 °C 17.6 °C 1012.8 hPa NE 13.3 km/h 24.1 km/h 53.7% 0.0 mm
15:44 28 °C 17.3 °C 1012.6 hPa NE 14 km/h 20.4 km/h 52.5% 0.0 mm
15:49 28.1 °C 17.3 °C 1012.6 hPa NE 13.4 km/h 22.2 km/h 52% 0.0 mm
15:54 28.2 °C 17.4 °C 1012.6 hPa ENE 11.9 km/h 28.2 km/h 52.1% 0.0 mm
15:59 28.3 °C 17.3 °C 1012.4 hPa ENE 12.3 km/h 29.6 km/h 51.2% 0.0 mm
16:04 28.3 °C 17.2 °C 1012.4 hPa ENE 13 km/h 32.3 km/h 50.9% 0.0 mm
16:09 28.3 °C 16.6 °C 1012.4 hPa ENE 13.6 km/h 33.3 km/h 49.2% 0.0 mm
16:14 28.3 °C 16.6 °C 1012.3 hPa ENE 14.8 km/h 33.3 km/h 49% 0.0 mm
16:19 28.4 °C 16.5 °C 1012.3 hPa ENE 14.8 km/h 31.5 km/h 48.6% 0.0 mm
16:24 28.3 °C 16.6 °C 1012.3 hPa ENE 14.8 km/h 33.3 km/h 48.9% 0.0 mm
16:29 28.3 °C 16.5 °C 1012.3 hPa NE 15.9 km/h 34.3 km/h 48.8% 0.0 mm
16:34 28.3 °C 16.3 °C 1012.3 hPa NE 18.3 km/h 35.2 km/h 48.3% 0.0 mm
16:39 28.3 °C 16.5 °C 1012.3 hPa ENE 18.9 km/h 42.6 km/h 48.6% 0.0 mm
16:44 28.3 °C 16.7 °C 1012.3 hPa ENE 20.1 km/h 35.2 km/h 49.2% 0.0 mm
16:49 28.3 °C 17.1 °C 1012.3 hPa ENE 19.6 km/h 34.3 km/h 50.7% 0.0 mm
16:54 28.1 °C 17.2 °C 1012.3 hPa NE 18.3 km/h 40.7 km/h 51.5% 0.0 mm
16:59 28.1 °C 17.5 °C 1012.2 hPa ENE 18.3 km/h 34.3 km/h 52.5% 0.0 mm
17:04 28.1 °C 17.6 °C 1012.2 hPa ENE 18.3 km/h 34.3 km/h 53% 0.0 mm
17:09 27.9 °C 17.5 °C 1012.2 hPa NE 18.9 km/h 34.3 km/h 53.1% 0.0 mm
17:14 27.8 °C 17.7 °C 1012.2 hPa ENE 20.1 km/h 35.2 km/h 53.9% 0.0 mm
17:19 27.8 °C 17.8 °C 1012.2 hPa ENE 19.5 km/h 33.3 km/h 54.3% 0.0 mm
17:24 27.9 °C 17.6 °C 1012.3 hPa NE 18 km/h 29.6 km/h 53.6% 0.0 mm
17:29 28.1 °C 17.4 °C 1012.3 hPa NE 18.7 km/h 38.9 km/h 52.5% 0.0 mm
17:34 27.9 °C 17.1 °C 1012.3 hPa NE 20.1 km/h 35.2 km/h 51.9% 0.0 mm
17:39 28 °C 17.2 °C 1012.3 hPa NE 20.6 km/h 37.8 km/h 52% 0.0 mm
17:44 28.1 °C 17.3 °C 1012.1 hPa NE 21.7 km/h 34.3 km/h 52% 0.0 mm
17:49 28.1 °C 17.4 °C 1012.1 hPa NE 21.8 km/h 40.7 km/h 52.1% 0.0 mm
17:54 27.9 °C 17.7 °C 1012.1 hPa NE 22 km/h 40.7 km/h 53.8% 0.0 mm
17:59 27.8 °C 18 °C 1012.1 hPa NE 22.5 km/h 42 km/h 55% 0.0 mm
18:04 27.7 °C 18.1 °C 1012.1 hPa NE 23.3 km/h 42.6 km/h 56.1% 0.0 mm
18:09 27.6 °C 18.3 °C 1012.2 hPa NE 23.7 km/h 39.6 km/h 57% 0.0 mm
18:14 27.3 °C 18.3 °C 1012.2 hPa NE 24.5 km/h 38.9 km/h 57.7% 0.0 mm
18:19 27.2 °C 18.4 °C 1012.2 hPa NE 24.2 km/h 43.1 km/h 58.7% 0.0 mm
18:24 26.9 °C 18.4 °C 1012.3 hPa NE 23.7 km/h 37.8 km/h 59.5% 0.0 mm
18:29 26.8 °C 18.4 °C 1012.3 hPa NE 22.8 km/h 37 km/h 60% 0.0 mm
18:34 26.7 °C 18.5 °C 1012.3 hPa NE 20.9 km/h 42.6 km/h 60.7% 0.0 mm
18:39 26.7 °C 18.7 °C 1012.3 hPa NE 21.2 km/h 29.6 km/h 61.4% 0.0 mm
18:44 26.7 °C 18.8 °C 1012.2 hPa NE 21.7 km/h 25.9 km/h 62% 0.0 mm
18:49 26.6 °C 18.7 °C 1012.2 hPa NE 20.4 km/h 33.5 km/h 62% 0.0 mm
18:54 26.6 °C 18.7 °C 1012.2 hPa NE 17.2 km/h 27.8 km/h 62% 0.0 mm
18:59 26.5 °C 18.8 °C 1012.2 hPa NE 16.4 km/h 25.9 km/h 62.5% 0.0 mm
19:04 26.4 °C 18.8 °C 1012.2 hPa NE 14.8 km/h 35.9 km/h 63% 0.0 mm
19:09 26.3 °C 18.7 °C 1012.3 hPa NE 15.2 km/h 35.2 km/h 63% 0.0 mm
19:14 26.3 °C 18.9 °C 1012.3 hPa NE 16.1 km/h 27.8 km/h 63.7% 0.0 mm
19:19 26.2 °C 18.9 °C 1012.3 hPa NE 16.2 km/h 33.3 km/h 64% 0.0 mm
19:24 26.2 °C 19 °C 1012.3 hPa NE 16.4 km/h 31.5 km/h 64.7% 0.0 mm
19:29 26.1 °C 18.9 °C 1012.3 hPa NE 17 km/h 24.1 km/h 65% 0.0 mm
19:34 26 °C 18.9 °C 1012.3 hPa NNE 18.3 km/h 20.4 km/h 65% 0.0 mm
19:39 26 °C 18.9 °C 1012.5 hPa NNE 16.5 km/h 28.2 km/h 65% 0.0 mm
19:44 25.9 °C 19.1 °C 1012.5 hPa NNE 12.2 km/h 28.2 km/h 66% 0.0 mm
19:49 25.8 °C 19.2 °C 1012.5 hPa NNE 13.8 km/h 29.6 km/h 67% 0.0 mm
19:54 25.7 °C 19.4 °C 1012.5 hPa NNE 17.2 km/h 27.8 km/h 68.4% 0.0 mm
19:59 25.6 °C 19.6 °C 1012.4 hPa NE 17.2 km/h 25.9 km/h 69.5% 0.0 mm
20:04 25.4 °C 19.6 °C 1012.4 hPa NNE 17.2 km/h 22.2 km/h 70.2% 0.0 mm
20:09 25.4 °C 19.8 °C 1012.5 hPa NNE 16.1 km/h 22.2 km/h 71% 0.0 mm
20:14 25.3 °C 19.7 °C 1012.5 hPa NNE 13.7 km/h 20.4 km/h 71% 0.0 mm
20:19 25.3 °C 19.7 °C 1012.5 hPa NNE 13.2 km/h 20.4 km/h 71% 0.0 mm
20:24 25.3 °C 19.7 °C 1012.5 hPa NNE 11.9 km/h 20.9 km/h 71% 0.0 mm
20:29 25.3 °C 19.7 °C 1012.4 hPa NE 11.9 km/h 19 km/h 70.8% 0.0 mm
20:34 25.4 °C 19.5 °C 1012.4 hPa NE 11.9 km/h 22.2 km/h 70% 0.0 mm
20:39 25.4 °C 19.5 °C 1012.5 hPa NE 12 km/h 18.5 km/h 70% 0.0 mm
20:44 25.4 °C 19.5 °C 1012.5 hPa NE 12.2 km/h 19 km/h 70% 0.0 mm
20:49 25.3 °C 19.5 °C 1012.5 hPa NE 11.9 km/h 19 km/h 70% 0.0 mm
20:54 25.3 °C 19.4 °C 1012.5 hPa NNE 11.1 km/h 16.7 km/h 70% 0.0 mm
20:59 25.3 °C 19.4 °C 1012.5 hPa NE 10.8 km/h 16.7 km/h 70% 0.0 mm
21:04 25.3 °C 19.4 °C 1012.5 hPa NE 10.3 km/h 14.8 km/h 70% 0.0 mm
21:09 25.3 °C 19.4 °C 1012.8 hPa NE 9.7 km/h 13.7 km/h 70% 0.0 mm
21:14 25.3 °C 19.4 °C 1012.8 hPa North 8.4 km/h 11.1 km/h 70% 0.0 mm
21:19 25.3 °C 19.4 °C 1012.8 hPa NNO 7.6 km/h 9.3 km/h 70% 0.0 mm
21:24 25.3 °C 19.4 °C 1013.0 hPa NNE 5.8 km/h 10 km/h 70% 0.0 mm
21:29 25.2 °C 19.2 °C 1013.0 hPa North 5.5 km/h 7.4 km/h 69.4% 0.0 mm
21:34 25.3 °C 19.2 °C 1013.0 hPa NO 5 km/h 7.6 km/h 69% 0.0 mm
21:39 25.3 °C 19.2 °C 1013.1 hPa NNE 4.9 km/h 8.4 km/h 69% 0.0 mm
21:44 25.3 °C 18.8 °C 1013.1 hPa NO 4.7 km/h 9.5 km/h 67.5% 0.0 mm
21:49 25.2 °C 18.6 °C 1013.1 hPa NNO 4.8 km/h 13 km/h 67% 0.0 mm
21:54 25.2 °C 18.5 °C 1013.5 hPa NNO 5 km/h 11.9 km/h 66.4% 0.0 mm
21:59 25.1 °C 18.3 °C 1013.5 hPa North 5.7 km/h 13 km/h 66% 0.0 mm
22:04 25.1 °C 18.3 °C 1013.5 hPa North 6.9 km/h 13 km/h 66% 0.0 mm
22:09 24.9 °C 18.2 °C 1013.6 hPa NNO 6.6 km/h 11.1 km/h 66% 0.0 mm
22:14 24.9 °C 18.1 °C 1013.6 hPa NNO 5.8 km/h 9.3 km/h 66% 0.0 mm
22:19 24.9 °C 18.1 °C 1013.6 hPa NO 5.4 km/h 10 km/h 66% 0.0 mm
22:24 24.8 °C 18 °C 1013.9 hPa NNO 4.7 km/h 9.3 km/h 66.1% 0.0 mm
22:29 24.8 °C 18 °C 1013.9 hPa North 5 km/h 9.3 km/h 66% 0.0 mm
22:34 24.8 °C 18.2 °C 1013.9 hPa North 5.8 km/h 11.9 km/h 66.6% 0.0 mm
22:39 24.8 °C 18.3 °C 1013.9 hPa North 5.5 km/h 11.1 km/h 67% 0.0 mm
22:44 24.8 °C 18.2 °C 1013.7 hPa North 5 km/h 7.4 km/h 67% 0.0 mm
22:49 24.7 °C 18.2 °C 1013.7 hPa North 4.7 km/h 9.3 km/h 67% 0.0 mm
22:54 24.7 °C 18.2 °C 1013.8 hPa NNO 3.9 km/h 5.6 km/h 67% 0.0 mm
22:59 24.7 °C 18.2 °C 1013.8 hPa NNO 3.5 km/h 5.6 km/h 67% 0.0 mm
23:04 24.7 °C 18.2 °C 1013.8 hPa NO 2.9 km/h 7.4 km/h 67% 0.0 mm
23:09 24.7 °C 18.2 °C 1013.9 hPa NO 2.9 km/h 3.9 km/h 67% 0.0 mm
23:14 24.7 °C 18.2 °C 1013.9 hPa NO 2.9 km/h 7.4 km/h 67% 0.0 mm
23:15 24.7 °C 18.2 °C 1013.9 hPa NO 2.9 km/h 5.6 km/h 67% 0.0 mm
Murcia-Puente Tocinos, España
Compliments of Weather Underground - 2.5 mb

La estación de MeteoMurcia.com, publica sus datos en los siguientes proyectos:

Weather Underground PWS IMURCIAP2 Meteoclimatic www.awekas.at

W3Counter
Web Analytics